Accueil
METAR-TAF:

METAR-TAF

Aéroports :

Saint-Nazaire, France

Aéroport de Saint-Nazaire - Montoir

latitude: 47-19N, longitude: 002-10W, altitude: 3 m

Observation

Le bulletin a été fait il y a 31 minutes, à 00:00 UTC
Vent 4 kt de nord/nord-est
Température 0°C
Humidité 80%
Pression 1013 hPa
Visibilité 10 km ou plus
pas de nuages en-dessous de 1500 mètres et pas de cumulonimbus.

METAR: LFRZ 240000Z AUTO 02004KT CAVOK M00/M03 Q1013 NOSIG

Heure: 01:31 (00:31 UTC)

Prévision

Le bulletin a été fait il y a 1 heure et 31 minutes, à 23:00 UTC
Prévision valable du 24 à 00 UTC au 24 à 24 UTC
Vent 8 kt de est/nord-est
Visibilité 10 km ou plus
pas de nuages en-dessous de 1500 mètres et pas de cumulonimbus.
Probabilité 30% :
Temporairement
du 24 à 03 UTC au 24 à 09 UTC
Visibilité: 4000 m
brume sèche

TAF: LFRZ 232300Z 2400/2424 06008KT CAVOK PROB30 TEMPO 2403/2409 4000 HZ

Observations et prévisions météorologiques de plus de 4000 aéroports (messages METAR et TAF).

Les stations disponibles sont représentées par des disques jaunes et rouges sur la carte.

Passer la souris dessus pour voir le nom de la station.

Cliquer dessus pour voir les observations et prévisions météorologiques.

Pour changer de carte: cliquez sur les boutons verts avec une croix noire pour zoomer, sur le bouton vert avec un tiret pour effectuer un zoom arrière, ou sur les flèches vertes pour les cartes adjacentes.


METAR-TAF: